This is the latest recevied weather packets stored in our database for station/object N3WMC. If no packets are shown the sender has not sent any weather packets the latest 1 day(s).
| Time | Temp. | Humidity | Pressure | Rain* | Wind** | Luminosity | Snow |
|---|---|---|---|---|---|---|---|
| 1778017706 | 22.22° C | 55% | 1008.3 hPa | 0 mm | - | 135 W/m² | - |
| 1778017100 | 21.67° C | 57% | 1008.4 hPa | 0 mm | - | 137 W/m² | - |
| 1778016191 | 21.67° C | 58% | 1008.4 hPa | 0 mm | - | 109 W/m² | - |
| 1778015887 | 21.67° C | 60% | 1008.4 hPa | 0 mm | - | 113 W/m² | - |
| 1778015281 | 21.67° C | 61% | 1008.6 hPa | 0 mm | - | 194 W/m² | - |
| 1778014675 | 20.56° C | 64% | 1008.7 hPa | 0 mm | - | 216 W/m² | - |
| 1778013464 | 22.78° C | 51% | 1008.5 hPa | 0 mm | - | 22 W/m² | - |
| 1778011948 | 22.78° C | 50% | 1008.4 hPa | 0 mm | - | 143 W/m² | - |
| 1778011038 | 22.78° C | 49% | 1008.8 hPa | 0 mm | - | 167 W/m² | - |
| 1778010736 | 22.78° C | 50% | 1008.8 hPa | 0 mm | - | 138 W/m² | - |
| 1778007710 | 22.78° C | 47% | 1009 hPa | 0 mm | - | 108 W/m² | - |
| 1778006194 | 23.33° C | 46% | 1008.9 hPa | 0 mm | - | 475 W/m² | - |
| 1778004374 | 22.78° C | 49% | 1009.4 hPa | 0 mm | - | 385 W/m² | - |
| 1778004072 | 22.22° C | 49% | 1009.5 hPa | 0 mm | - | 219 W/m² | - |
| 1778002250 | 23.33° C | 48% | 1008.7 hPa | 0 mm | - | 217 W/m² | - |
| 1778001948 | 24.44° C | 46% | 1008.5 hPa | 0 mm | - | 209 W/m² | - |
| 1778000733 | 24.44° C | 45% | 1008.4 hPa | 0 mm | - | 753 W/m² | - |
| 1778000125 | 23.89° C | 47% | 1008.6 hPa | 0 mm | - | 327 W/m² | - |
| 1777998913 | 22.78° C | 48% | 1008.8 hPa | 0 mm | - | 877 W/m² | - |
| 1777997696 | 22.78° C | 49% | 1008.9 hPa | 0 mm | - | 186 W/m² | - |
| 1777997092 | 22.78° C | 50% | 1009 hPa | 0 mm | - | 153 W/m² | - |
* Rain latest hour (hover to see other rain measurements)
** Current wind speed in m/s (hover to see current wind gust speed)